Amesville, Ohio
Current Conditions -  °F | °C
As of 3:15 PM on Thursday 23 Oct 2014 (Local Time) from KUNI Reporting Station
Clear Clear  
Wind Chill: 59°   Ceiling: Unl
Heat Index: 59°   Visibility: 10mi
Dew Point: 40°   Wind: 6mph
Humidity: 49%   Direction: 350°N
Pressure: 30.14"   Gusts: NA
Location:  39.4°N, 81.96°W
Report Text: KUNI 231915Z AUTO 35005KT 10SM CLR 15/04 A3014 RMK AO2 T01510044
Loading
Personal Weather Stations






























Interactive Weather Map New forecast layout! Learn more

10-Day Weather Forecast

Advertisements
Track Severe Weather on mobile